createdAt,value
2019-04-29T00:03:06.298Z,100631.28
2019-04-29T00:08:07.866Z,100631.38
2019-04-29T00:13:09.763Z,100622.40
2019-04-29T00:18:18.628Z,100624.50
2019-04-29T00:23:20.273Z,100618.52
2019-04-29T00:28:21.825Z,100622.38
2019-04-29T00:33:23.602Z,100614.30
2019-04-29T00:38:43.020Z,100612.27
2019-04-29T00:43:48.905Z,100614.33
2019-04-29T00:48:50.473Z,100610.64
2019-04-29T00:53:55.614Z,100610.52
2019-04-29T00:58:57.154Z,100608.55
2019-04-29T01:03:58.770Z,100609.70
2019-04-29T01:09:00.423Z,100612.80
2019-04-29T01:14:02.082Z,100619.80
2019-04-29T01:19:04.081Z,100612.70
2019-04-29T01:24:05.953Z,100604.32
2019-04-29T01:29:08.453Z,100594.31
2019-04-29T01:34:29.682Z,100598.69
2019-04-29T01:39:42.633Z,100601.19
2019-04-29T01:44:44.200Z,100601.62
2019-04-29T01:49:45.779Z,100606.57
2019-04-29T01:54:47.352Z,100604.48
2019-04-29T01:59:48.893Z,100608.27
2019-04-29T02:04:50.551Z,100604.98
2019-04-29T02:10:01.266Z,100599.06
2019-04-29T02:15:03.830Z,100602.13
2019-04-29T02:20:05.761Z,100602.31
2019-04-29T02:25:12.338Z,100598.81
2019-04-29T02:30:33.919Z,100602.56
2019-04-29T02:35:35.482Z,100591.03
2019-04-29T02:40:44.477Z,100590.34
2019-04-29T02:45:46.122Z,100577.52
2019-04-29T02:50:47.703Z,100583.07
2019-04-29T02:55:51.850Z,100575.98
2019-04-29T03:01:13.256Z,100572.64
2019-04-29T03:06:14.938Z,100572.05
2019-04-29T03:11:18.158Z,100564.14
2019-04-29T03:16:19.815Z,100557.11
2019-04-29T03:21:26.138Z,100557.47
2019-04-29T03:26:27.794Z,100559.55
2019-04-29T03:31:29.493Z,100548.19
2019-04-29T03:36:31.051Z,100555.71
2019-04-29T03:41:32.610Z,100555.37
2019-04-29T03:46:34.281Z,100547.80
2019-04-29T03:51:35.936Z,100545.80
2019-04-29T03:56:38.241Z,100538.83
2019-04-29T04:02:05.760Z,100537.78
2019-04-29T04:07:25.850Z,100534.70
2019-04-29T04:12:27.448Z,100536.82
2019-04-29T04:17:37.869Z,100541.10
2019-04-29T04:22:46.119Z,100544.57
2019-04-29T04:27:47.996Z,100547.39
2019-04-29T04:32:49.554Z,100545.45
2019-04-29T04:37:51.128Z,100549.45
2019-04-29T04:42:52.691Z,100555.71
2019-04-29T04:47:54.274Z,100545.52
2019-04-29T04:52:55.849Z,100542.67
2019-04-29T04:57:57.396Z,100538.39
2019-04-29T05:02:58.958Z,100534.80
2019-04-29T05:08:06.753Z,100535.49
2019-04-29T05:13:08.283Z,100533.75
2019-04-29T05:18:09.850Z,100530.85
2019-04-29T05:23:11.435Z,100517.81
2019-04-29T05:28:12.979Z,100525.53
2019-04-29T05:33:14.659Z,100528.47
2019-04-29T05:38:21.208Z,100530.75
2019-04-29T05:43:32.212Z,100531.83
2019-04-29T05:48:33.520Z,100530.40
2019-04-29T05:53:41.958Z,100522.03
2019-04-29T05:58:43.496Z,100512.38
2019-04-29T06:03:45.178Z,100514.84
2019-04-29T06:08:46.724Z,100511.87
2019-04-29T06:13:48.296Z,100511.19
2019-04-29T06:18:49.944Z,100497.81
2019-04-29T06:23:54.468Z,100492.28
2019-04-29T06:28:55.110Z,100491.13
2019-04-29T06:34:00.717Z,100495.34
2019-04-29T06:39:00.318Z,100485.93
2019-04-29T06:44:06.682Z,100499.05
2019-04-29T06:49:10.549Z,100491.18
2019-04-29T06:54:08.949Z,100488.52
2019-04-29T06:59:12.259Z,100490.58
2019-04-29T07:04:13.994Z,100491.42
2019-04-29T07:09:15.564Z,100488.61
2019-04-29T07:14:17.395Z,100491.95
2019-04-29T07:19:22.226Z,100480.22
2019-04-29T07:24:23.012Z,100472.28
2019-04-29T07:29:29.560Z,100477.87
2019-04-29T07:34:28.984Z,100473.12
2019-04-29T07:39:33.390Z,100470.69
2019-04-29T07:44:48.813Z,100482.93
2019-04-29T07:49:51.424Z,100487.14
2019-04-29T07:54:55.029Z,100479.08
2019-04-29T07:59:55.401Z,100494.66
2019-04-29T08:04:56.972Z,100480.32
2019-04-29T08:09:59.042Z,100477.35
2019-04-29T08:15:07.524Z,100463.73
2019-04-29T08:20:06.395Z,100463.96
2019-04-29T08:25:08.374Z,100446.13
2019-04-29T08:30:11.453Z,100434.14
2019-04-29T08:35:13.531Z,100446.22
2019-04-29T08:40:16.746Z,100436.20
2019-04-29T08:45:39.086Z,100420.18
2019-04-29T08:50:40.492Z,100435.98
2019-04-29T08:55:42.162Z,100429.62
2019-04-29T09:05:46.166Z,100426.27
2019-04-29T09:10:47.450Z,100415.71
2019-04-29T09:15:49.021Z,100408.66
2019-04-29T09:20:50.576Z,100408.66
2019-04-29T09:26:05.738Z,100402.72
2019-04-29T09:31:07.320Z,100395.85
2019-04-29T09:36:09.597Z,100376.99
2019-04-29T09:41:26.070Z,100384.36
2019-04-29T09:46:34.494Z,100411.25
2019-04-29T09:51:34.100Z,100420.61
2019-04-29T09:56:35.713Z,100422.55
2019-04-29T10:06:45.231Z,100408.53
2019-04-29T10:11:46.785Z,100388.30
2019-04-29T10:17:23.219Z,100379.42
2019-04-29T10:22:24.797Z,100363.28
2019-04-29T10:27:26.380Z,100362.31
2019-04-29T10:32:28.045Z,100351.48
2019-04-29T10:37:32.397Z,100338.44
2019-04-29T10:42:39.242Z,100331.87
2019-04-29T10:47:54.512Z,100337.87
2019-04-29T10:53:57.815Z,100323.13
2019-04-29T10:58:59.496Z,100329.13
2019-04-29T11:04:02.758Z,100320.64
2019-04-29T11:09:25.553Z,100317.55
2019-04-29T11:14:27.218Z,100312.67
2019-04-29T11:19:28.887Z,100307.09
2019-04-29T11:25:40.375Z,100308.74
2019-04-29T11:30:41.279Z,100294.47
2019-04-29T11:35:52.968Z,100300.59
2019-04-29T11:40:55.958Z,100317.48
2019-04-29T11:45:57.637Z,100317.54
2019-04-29T11:51:15.693Z,100322.09
2019-04-29T11:56:17.265Z,100322.84
2019-04-29T12:01:59.662Z,100331.12
2019-04-29T12:07:00.972Z,100329.48
2019-04-29T12:12:02.785Z,100321.67
2019-04-29T12:17:26.889Z,100317.61
2019-04-29T12:22:30.872Z,100312.02
2019-04-29T12:27:32.040Z,100291.79
2019-04-29T12:32:43.552Z,100293.60
2019-04-29T12:38:05.837Z,100280.33
2019-04-29T12:43:23.734Z,100279.36
2019-04-29T12:48:25.497Z,100267.95
2019-04-29T12:53:27.186Z,100270.80
2019-04-29T12:58:28.890Z,100272.11
2019-04-29T13:03:41.121Z,100261.95
2019-04-29T13:08:48.725Z,100259.52
2019-04-29T13:13:51.381Z,100257.91
2019-04-29T13:19:14.515Z,100260.41
2019-04-29T13:24:18.255Z,100259.74
2019-04-29T13:29:25.815Z,100262.58
2019-04-29T13:34:24.085Z,100253.10
2019-04-29T13:39:38.375Z,100248.38
2019-04-29T13:44:26.853Z,100238.92
2019-04-29T13:49:40.340Z,100238.94
2019-04-29T13:54:43.940Z,100238.64
2019-04-29T13:59:56.954Z,100237.67
2019-04-29T14:05:02.231Z,100237.21
2019-04-29T14:10:04.580Z,100231.95
2019-04-29T14:15:06.371Z,100229.54
2019-04-29T14:20:10.725Z,100222.69
2019-04-29T14:25:13.392Z,100229.26
2019-04-29T14:30:16.892Z,100223.53
2019-04-29T14:35:25.327Z,100224.05
2019-04-29T14:40:26.892Z,100230.78
2019-04-29T14:45:48.224Z,100229.67
2019-04-29T14:50:54.253Z,100238.58
2019-04-29T14:55:53.529Z,100224.13
2019-04-29T15:01:23.414Z,100233.41
2019-04-29T15:06:24.084Z,100233.78
2019-04-29T15:11:31.869Z,100234.13
2019-04-29T15:16:46.419Z,100242.86
2019-04-29T15:21:51.518Z,100244.20
2019-04-29T15:26:53.148Z,100241.45
2019-04-29T15:31:54.763Z,100242.62
2019-04-29T15:36:56.487Z,100246.13
2019-04-29T15:42:01.969Z,100247.62
2019-04-29T15:47:01.602Z,100245.36
2019-04-29T15:52:03.373Z,100246.20
2019-04-29T15:57:09.099Z,100246.53
2019-04-29T16:02:09.280Z,100259.98
2019-04-29T16:07:28.070Z,100263.25
2019-04-29T16:12:37.446Z,100257.33
2019-04-29T16:17:39.431Z,100255.03
2019-04-29T16:22:41.164Z,100252.41
2019-04-29T16:32:46.456Z,100258.17
2019-04-29T16:37:48.092Z,100260.59
2019-04-29T16:42:56.736Z,100266.70
2019-04-29T16:47:58.332Z,100266.86
2019-04-29T16:52:59.938Z,100274.58
2019-04-29T16:58:07.769Z,100268.81
2019-04-29T17:03:07.980Z,100264.23
2019-04-29T17:08:14.978Z,100269.83
2019-04-29T17:13:16.671Z,100274.45
2019-04-29T17:18:16.873Z,100281.52
2019-04-29T17:23:24.180Z,100282.33
2019-04-29T17:28:29.094Z,100286.11
2019-04-29T17:35:15.774Z,100253.25
2019-04-29T17:35:18.745Z,100282.50
2019-04-29T17:38:52.859Z,100280.55
2019-04-29T17:44:18.761Z,100276.13
2019-04-29T17:49:36.505Z,100274.65
2019-04-29T17:54:40.747Z,100285.03
2019-04-29T18:00:05.088Z,100285.16
2019-04-29T18:05:33.028Z,100282.06
2019-04-29T18:10:39.971Z,100287.33
2019-04-29T18:15:57.868Z,100288.64
2019-04-29T18:21:16.009Z,100292.24
2019-04-29T18:26:25.815Z,100290.42
2019-04-29T18:31:30.587Z,100288.44
2019-04-29T18:36:31.129Z,100291.41
2019-04-29T18:41:32.727Z,100286.48
2019-04-29T18:46:35.194Z,100290.92
2019-04-29T18:51:36.991Z,100292.58
2019-04-29T18:56:38.546Z,100294.87
2019-04-29T19:01:40.118Z,100292.58
2019-04-29T19:06:41.741Z,100304.62
2019-04-29T19:11:43.502Z,100303.77
2019-04-29T19:16:45.886Z,100303.64
2019-04-29T19:21:47.741Z,100302.66
2019-04-29T19:26:49.388Z,100310.38
2019-04-29T19:31:51.109Z,100312.51
2019-04-29T19:36:55.791Z,100317.30
2019-04-29T19:41:56.337Z,100317.77
2019-04-29T19:46:59.132Z,100317.12
2019-04-29T19:52:01.010Z,100320.86
2019-04-29T19:57:04.912Z,100329.73
2019-04-29T20:02:10.044Z,100323.80
2019-04-29T20:07:10.996Z,100327.74
2019-04-29T20:12:16.892Z,100332.16
2019-04-29T20:17:37.050Z,100331.81
2019-04-29T20:22:43.385Z,100336.27
2019-04-29T20:27:43.486Z,100336.27
2019-04-29T20:32:46.232Z,100340.00
2019-04-29T20:37:55.439Z,100343.13
2019-04-29T20:42:51.527Z,100344.95
2019-04-29T20:47:53.470Z,100349.37
2019-04-29T20:53:21.294Z,100348.22
2019-04-29T20:58:23.523Z,100347.20
2019-04-29T21:03:30.284Z,100355.21
2019-04-29T21:08:30.382Z,100348.09
2019-04-29T21:13:44.166Z,100351.83
2019-04-29T21:18:52.963Z,100355.76
2019-04-29T21:23:49.353Z,100358.17
2019-04-29T21:28:50.925Z,100361.60
2019-04-29T21:33:55.389Z,100363.38
2019-04-29T21:39:18.542Z,100374.17
2019-04-29T21:44:23.715Z,100370.35
2019-04-29T21:49:25.689Z,100378.98
2019-04-29T21:54:27.291Z,100379.45
2019-04-29T21:59:28.868Z,100378.42
2019-04-29T22:04:32.842Z,100383.43
2019-04-29T22:09:36.352Z,100390.05
2019-04-29T22:14:37.874Z,100386.84
2019-04-29T22:19:39.456Z,100390.39
2019-04-29T22:24:41.151Z,100394.86
2019-04-29T22:29:42.854Z,100398.09
2019-04-29T22:34:45.182Z,100397.69
2019-04-29T22:39:46.945Z,100401.78
2019-04-29T22:44:48.616Z,100395.95
2019-04-29T22:49:51.804Z,100394.64
2019-04-29T22:54:57.878Z,100404.00
2019-04-29T22:59:57.274Z,100407.17
2019-04-29T23:04:58.979Z,100407.33
2019-04-29T23:10:00.680Z,100408.21
2019-04-29T23:15:02.442Z,100408.28
2019-04-29T23:20:16.484Z,100408.90
2019-04-29T23:25:26.610Z,100410.64
2019-04-29T23:30:27.000Z,100405.53
2019-04-29T23:35:28.690Z,100403.34
2019-04-29T23:40:30.243Z,100400.62
2019-04-29T23:45:31.808Z,100405.52
2019-04-29T23:50:35.782Z,100400.89
2019-04-29T23:55:36.942Z,100399.51
